Time;durP1;ratioP1;P1;durP2;ratioP2;P2;SDS_P1;SDS_P2;PMS_P1;PMS_P2;Temp;Humidity;BMP_temperature;BMP_pressure;BME280_temperature;BME280_humidity;BME280_pressure;Samples;Min_cycle;Max_cycle;Signal;HPM_P1;HPM_P2
2024/02/27 00:01:09;;;;;;;9.65;4.07;;;;;;;-4.90;58.39;101091.31;4947185;28;20069;-71
2024/02/27 00:03:37;;;;;;;;;;;;;;;-4.46;58.27;101151.25;4958884;28;20051;-71
2024/02/27 00:06:07;;;;;;;7.22;3.58;;;;;;;-4.45;58.56;101158.13;4945568;28;19918;-71
2024/02/27 00:08:34;;;;;;;7.50;3.85;;;;;;;-4.86;58.79;101078.06;4954501;28;20047;-72
2024/02/27 00:11:04;;;;;;;11.35;3.90;;;;;;;-4.49;57.68;101148.50;4959850;28;20047;-72
2024/02/27 00:13:30;;;;;;;12.50;4.32;;;;;;;-5.01;58.31;101065.13;4959120;28;20046;-73
2024/02/27 00:15:56;;;;;;;12.98;4.20;;;;;;;-4.46;58.39;101142.72;4960032;28;20049;-72
2024/02/27 00:18:22;;;;;;;8.63;3.97;;;;;;;-4.90;58.09;101060.84;4960651;28;20043;-72
2024/02/27 00:20:48;;;;;;;8.93;4.30;;;;;;;-4.46;58.30;101147.81;4962177;28;20078;-70
2024/02/27 00:23:14;;;;;;;13.07;4.10;;;;;;;-4.73;58.81;101099.28;4957992;28;20039;-72
2024/02/27 00:25:40;;;;;;;9.38;3.97;;;;;;;-4.91;57.95;101074.31;4957027;28;20609;-72
2024/02/27 00:28:06;;;;;;;8.18;3.90;;;;;;;-4.49;58.71;101142.50;4963178;28;20551;-72
2024/02/27 00:30:32;;;;;;;10.60;3.65;;;;;;;-4.78;58.29;101093.88;4958647;28;20050;-72
2024/02/27 00:32:58;;;;;;;7.28;2.92;;;;;;;-4.57;58.56;101149.56;4977877;28;20635;-72
2024/02/27 00:35:24;;;;;;;11.27;4.38;;;;;;;-5.00;58.47;101081.25;4962575;28;20043;-72
2024/02/27 00:37:50;;;;;;;9.65;4.10;;;;;;;-4.74;58.74;101128.00;4966956;28;20089;-71
2024/02/27 00:40:16;;;;;;;9.70;4.55;;;;;;;-4.85;58.48;101112.84;4963191;28;20050;-71
2024/02/27 00:42:44;;;;;;;7.95;4.15;;;;;;;-4.74;59.18;101135.59;4962201;28;20147;-71
2024/02/27 00:45:10;;;;;;;8.93;4.13;;;;;;;-4.94;58.78;101090.97;4978825;28;20065;-70
2024/02/27 00:47:36;;;;;;;8.02;4.10;;;;;;;-4.75;58.79;101118.63;4950761;28;20134;-69
2024/02/27 00:50:03;;;;;;;10.45;4.07;;;;;;;-4.57;58.58;101140.31;4962446;28;20549;-70
2024/02/27 00:52:30;;;;;;;11.95;3.92;;;;;;;-5.07;59.25;101054.50;4982157;28;20112;-71
2024/02/27 00:54:56;;;;;;;9.90;4.28;;;;;;;-4.67;58.57;101117.53;4974206;28;20042;-70
2024/02/27 00:57:23;;;;;;;10.82;3.85;;;;;;;-4.74;59.10;101112.75;4984912;28;20048;-73
2024/02/27 00:59:49;;;;;;;9.98;4.10;;;;;;;-4.75;59.14;101116.09;4999694;28;20038;-70
2024/02/27 01:02:15;;;;;;;9.25;3.50;;;;;;;-5.12;58.67;101082.88;4986352;28;20042;-70
2024/02/27 01:04:42;;;;;;;8.90;3.40;;;;;;;-5.11;58.87;101077.00;4978864;28;20133;-70
2024/02/27 01:07:08;;;;;;;10.00;4.05;;;;;;;-4.68;58.85;101161.47;4990918;28;20049;-69
2024/02/27 01:09:36;;;;;;;7.40;3.60;;;;;;;-4.72;59.19;101150.22;5001834;28;20038;-71
2024/02/27 01:12:04;;;;;;;14.63;6.30;;;;;;;-4.84;59.16;101122.25;4979441;28;20494;-71
2024/02/27 01:14:30;;;;;;;12.45;4.30;;;;;;;-4.69;59.88;101140.28;5000331;28;20053;-71
2024/02/27 01:16:57;;;;;;;11.07;4.22;;;;;;;-4.42;59.46;101160.88;4981988;28;20094;-71
2024/02/27 01:19:23;;;;;;;7.97;3.97;;;;;;;-4.45;59.25;101139.44;4964363;28;20057;-72
2024/02/27 01:21:49;;;;;;;8.55;3.97;;;;;;;-5.05;59.38;101034.31;4984145;28;20060;-70
2024/02/27 01:24:15;;;;;;;7.95;4.28;;;;;;;-4.65;58.90;101121.06;5001464;28;20046;-70
2024/02/27 01:26:41;;;;;;;10.35;4.15;;;;;;;-4.65;59.98;101105.81;4983599;28;20042;-69
2024/02/27 01:29:07;;;;;;;8.60;3.63;;;;;;;-4.39;59.49;101105.16;4983139;28;20053;-70
2024/02/27 01:31:33;;;;;;;12.20;4.05;;;;;;;-3.94;59.42;101161.78;5003189;28;20527;-70
2024/02/27 01:34:00;;;;;;;9.23;4.10;;;;;;;-3.84;59.23;101157.31;5000144;28;20042;-69
2024/02/27 01:36:26;;;;;;;9.55;4.25;;;;;;;-3.90;58.84;101142.50;5001554;28;20045;-69
2024/02/27 01:38:52;;;;;;;9.23;4.40;;;;;;;-3.76;59.39;101143.50;5000892;28;20049;-72
2024/02/27 01:41:24;;;;;;;10.32;4.00;;;;;;;-3.71;59.24;101111.63;4999522;28;20045;-72
2024/02/27 01:43:50;;;;;;;9.82;3.85;;;;;;;-3.48;58.67;101161.56;4983894;28;20052;-71
2024/02/27 01:46:21;;;;;;;8.07;3.70;;;;;;;-4.08;58.57;101055.63;4988684;28;20050;-72
2024/02/27 01:48:47;;;;;;;5.97;3.75;;;;;;;-3.88;58.91;101095.19;5003013;28;20050;-70
2024/02/27 01:51:14;;;;;;;8.68;3.47;;;;;;;-3.82;58.23;101126.16;4980877;28;20038;-71
2024/02/27 01:53:43;;;;;;;10.32;3.90;;;;;;;-3.70;58.88;101145.56;4983463;28;20050;-73
2024/02/27 01:56:11;;;;;;;11.85;4.20;;;;;;;-3.81;58.50;101122.81;5002291;28;20069;-72
2024/02/27 01:58:39;;;;;;;10.30;4.28;;;;;;;-3.80;58.58;101128.78;4999885;28;20512;-72
2024/02/27 02:01:07;;;;;;;8.43;4.00;;;;;;;-3.91;58.98;101097.50;4984922;28;20096;-72
2024/02/27 02:03:37;;;;;;;10.93;3.88;;;;;;;-3.76;58.75;101124.81;4972412;28;20038;-71
2024/02/27 02:06:09;;;;;;;10.50;4.05;;;;;;;-3.53;58.61;101142.53;4983079;28;20046;-73
2024/02/27 02:08:35;;;;;;;9.80;3.95;;;;;;;-3.58;58.43;101135.38;4984329;28;20042;-70
2024/02/27 02:11:05;;;;;;;8.38;4.30;;;;;;;-3.90;58.75;101072.97;4989423;28;20037;-72
2024/02/27 02:13:31;;;;;;;8.93;3.72;;;;;;;-3.44;58.98;101144.88;4984052;28;20045;-70
2024/02/27 02:15:58;;;;;;;9.73;4.10;;;;;;;-3.48;58.93;101133.56;4967206;28;20068;-72
2024/02/27 02:18:27;;;;;;;8.50;3.58;;;;;;;-3.37;59.00;101144.50;4984913;28;20053;-70
2024/02/27 02:20:53;;;;;;;8.10;4.40;;;;;;;-3.22;59.05;101142.13;4983487;28;20038;-70
2024/02/27 02:23:19;;;;;;;9.60;3.97;;;;;;;-3.14;59.03;101140.09;4982233;28;20140;-71
2024/02/27 02:25:47;;;;;;;11.65;4.32;;;;;;;-2.96;58.93;101152.31;4999601;28;20512;-71
2024/02/27 02:28:14;;;;;;;8.88;3.72;;;;;;;-3.06;58.62;101116.03;4984039;28;20430;-71
2024/02/27 02:30:41;;;;;;;6.55;3.60;;;;;;;-2.87;58.26;101161.44;4982868;28;20042;-72
2024/02/27 02:33:09;;;;;;;13.15;4.15;;;;;;;-3.19;58.51;101103.25;4968756;28;20096;-71
2024/02/27 02:35:35;;;;;;;7.75;4.07;;;;;;;-3.42;58.88;101068.59;4986955;28;20209;-72
2024/02/27 02:38:02;;;;;;;9.13;3.65;;;;;;;-3.21;58.63;101080.22;4999523;28;20464;-71
2024/02/27 02:40:31;;;;;;;12.45;4.07;;;;;;;-2.88;58.62;101118.03;4982365;28;20066;-71
2024/02/27 02:42:57;;;;;;;6.63;3.85;;;;;;;-2.50;58.31;101155.34;4950888;28;21834;-71
2024/02/27 02:45:23;;;;;;;8.10;3.88;;;;;;;-3.05;58.03;101069.41;4983353;28;20558;-71
2024/02/27 02:47:50;;;;;;;8.85;3.90;;;;;;;-3.15;57.92;101068.69;5000232;28;20420;-72
2024/02/27 02:50:16;;;;;;;5.63;3.55;;;;;;;-2.71;58.13;101139.56;4982931;28;20149;-71
2024/02/27 02:52:43;;;;;;;7.50;3.95;;;;;;;-3.02;58.11;101091.66;4983131;28;20041;-70
2024/02/27 02:55:12;;;;;;;9.77;4.32;;;;;;;-2.84;58.14;101124.22;4972601;28;20070;-73
2024/02/27 02:57:40;;;;;;;8.02;3.97;;;;;;;-2.82;57.81;101140.50;4983428;28;20045;-71
2024/02/27 03:00:11;;;;;;;9.20;3.80;;;;;;;-2.69;58.35;101144.75;5000127;28;20030;-71
2024/02/27 03:02:37;;;;;;;9.25;3.80;;;;;;;-2.60;58.32;101142.81;4998887;28;20041;-71
2024/02/27 03:05:05;;;;;;;14.48;4.35;;;;;;;-2.72;58.02;101133.56;4988342;28;20412;-72
2024/02/27 03:07:31;;;;;;;9.05;3.53;;;;;;;-2.56;58.15;101149.88;4999737;28;20034;-70
2024/02/27 03:09:57;;;;;;;9.57;3.47;;;;;;;-2.57;57.97;101146.44;4964911;28;20170;-72
2024/02/27 03:12:24;;;;;;;9.93;4.28;;;;;;;-2.48;58.31;101146.16;4999305;28;20041;-71
2024/02/27 03:14:50;;;;;;;8.13;3.33;;;;;;;-2.45;58.48;101128.50;4982172;28;20037;-71
2024/02/27 03:17:16;;;;;;;9.50;4.88;;;;;;;-2.36;57.41;101140.97;4983217;28;20045;-72
2024/02/27 03:19:43;;;;;;;8.02;4.00;;;;;;;-2.30;57.91;101143.94;4972173;28;20204;-71
2024/02/27 03:22:10;;;;;;;9.18;3.33;;;;;;;-2.29;57.75;101142.25;4983659;28;20557;-71
2024/02/27 03:24:37;;;;;;;11.48;3.97;;;;;;;-2.28;58.02;101139.81;4983661;28;20061;-72
2024/02/27 03:27:04;;;;;;;8.05;3.75;;;;;;;-2.37;57.54;101112.84;4999338;28;20037;-70
2024/02/27 03:29:30;;;;;;;7.22;4.00;;;;;;;-2.42;57.65;101095.56;4968587;28;20046;-73
2024/02/27 03:31:57;;;;;;;7.57;3.78;;;;;;;-1.99;57.87;101160.31;4970910;28;20144;-73
2024/02/27 03:34:26;;;;;;;7.03;4.05;;;;;;;-2.51;57.23;101082.22;4971509;28;20038;-70
2024/02/27 03:36:53;;;;;;;7.78;3.40;;;;;;;-2.51;57.39;101077.13;4998730;28;20091;-70
2024/02/27 03:39:20;;;;;;;7.95;3.75;;;;;;;-2.40;57.69;101094.78;5002386;28;20049;-71
2024/02/27 03:41:49;;;;;;;10.05;4.15;;;;;;;-1.98;57.69;101144.22;4998321;28;20061;-70
2024/02/27 03:44:15;;;;;;;5.88;3.08;;;;;;;-1.94;57.09;101153.84;4999155;28;20038;-70
2024/02/27 03:46:41;;;;;;;8.50;4.43;;;;;;;-1.94;57.44;101140.19;4998659;28;20128;-70
2024/02/27 03:49:08;;;;;;;7.35;3.42;;;;;;;-1.99;57.72;101133.16;4987535;28;20409;-72
2024/02/27 03:51:35;;;;;;;7.47;3.70;;;;;;;-1.95;57.87;101133.31;4982946;28;20072;-70
2024/02/27 03:54:01;;;;;;;8.40;3.70;;;;;;;-2.10;57.21;101088.19;4981377;28;20133;-72
2024/02/27 03:56:27;;;;;;;6.65;4.07;;;;;;;-1.81;57.54;101132.53;4999455;28;20121;-71
2024/02/27 03:58:53;;;;;;;10.88;4.50;;;;;;;-1.80;57.73;101133.41;4999126;28;20030;-71
2024/02/27 04:01:20;;;;;;;9.27;3.90;;;;;;;-1.72;57.38;101147.53;4987077;28;20061;-72
2024/02/27 04:03:46;;;;;;;11.05;3.58;;;;;;;-1.86;57.39;101142.44;4986448;28;20041;-71
2024/02/27 04:06:18;;;;;;;7.32;3.45;;;;;;;-2.14;57.01;101114.28;4965170;28;20052;-70
2024/02/27 04:08:44;;;;;;;8.18;3.80;;;;;;;-1.87;57.68;101166.19;4986887;28;20049;-69
2024/02/27 04:11:13;;;;;;;7.40;4.10;;;;;;;-2.02;57.55;101137.16;4968810;28;20050;-70
2024/02/27 04:13:41;;;;;;;7.30;3.63;;;;;;;-1.95;57.40;101133.31;4982788;28;20137;-71
2024/02/27 04:16:08;;;;;;;12.55;4.30;;;;;;;-1.88;57.55;101156.78;4981293;28;20045;-70
2024/02/27 04:18:34;;;;;;;7.88;4.10;;;;;;;-1.69;57.56;101181.78;5000074;28;20038;-70
2024/02/27 04:21:06;;;;;;;9.63;4.20;;;;;;;-1.71;57.12;101169.72;4997837;28;20052;-70
2024/02/27 04:23:40;;;;;;;10.38;4.47;;;;;;;-1.62;57.72;101167.72;4986149;28;20562;-70
2024/02/27 04:26:11;;;;;;;11.88;3.88;;;;;;;-1.64;57.69;101148.00;4969453;28;20128;-69
2024/02/27 04:28:40;;;;;;;7.07;3.53;;;;;;;-1.41;57.11;101180.06;4979877;28;20133;-71
2024/02/27 04:31:06;;;;;;;7.10;3.50;;;;;;;-1.74;57.72;101127.00;5000243;28;20053;-68
2024/02/27 04:33:32;;;;;;;8.00;4.20;;;;;;;-1.69;57.56;101129.84;4989199;28;20156;-67
2024/02/27 04:35:58;;;;;;;13.63;3.67;;;;;;;-1.75;57.14;101109.91;5004041;28;20041;-69
2024/02/27 04:38:24;;;;;;;7.68;3.95;;;;;;;-1.23;56.85;101193.09;4973569;28;20038;-67
2024/02/27 04:40:50;;;;;;;9.00;4.32;;;;;;;-1.16;57.24;101177.34;4988250;28;20045;-69
2024/02/27 04:43:16;;;;;;;8.82;3.72;;;;;;;-1.02;56.46;101177.28;4983280;28;20457;-68
2024/02/27 04:45:42;;;;;;;9.35;3.63;;;;;;;-1.26;56.97;101112.06;4984846;28;20042;-68
2024/02/27 04:48:09;;;;;;;6.70;3.58;;;;;;;-1.02;57.01;101128.75;4972256;28;20389;-65
2024/02/27 04:50:36;;;;;;;9.75;4.10;;;;;;;-0.58;56.92;101178.19;5006354;28;20124;-65
2024/02/27 04:53:02;;;;;;;7.82;4.10;;;;;;;-0.36;56.26;101186.31;5000032;28;20046;-65
2024/02/27 04:55:30;;;;;;;7.25;3.70;;;;;;;-0.48;55.90;101165.13;4984907;28;20168;-67
2024/02/27 04:58:01;;;;;;;8.35;4.03;;;;;;;-0.58;56.40;101180.72;4980896;28;20180;-66
2024/02/27 05:00:27;;;;;;;8.05;3.67;;;;;;;-0.77;55.53;101182.19;4980747;28;20049;-66
2024/02/27 05:02:54;;;;;;;9.00;3.88;;;;;;;-1.15;55.90;101139.91;4995967;28;20038;-65
2024/02/27 05:05:20;;;;;;;6.20;3.63;;;;;;;-1.18;56.57;101161.03;4997400;28;20459;-66
2024/02/27 05:07:47;;;;;;;6.10;3.47;;;;;;;-1.32;56.55;101155.09;4988386;28;20096;-65
2024/02/27 05:10:24;;;;;;;8.70;3.55;;;;;;;-1.32;56.87;101162.75;4982040;28;20042;-66
2024/02/27 05:12:50;;;;;;;9.75;4.30;;;;;;;-1.19;56.87;101199.25;4998975;28;20030;-66
2024/02/27 05:15:16;;;;;;;8.38;3.83;;;;;;;-1.22;56.21;101180.44;4989050;28;21458;-65
2024/02/27 05:17:43;;;;;;;9.48;4.28;;;;;;;-1.21;56.44;101194.94;4984193;28;20068;-64
2024/02/27 05:20:12;;;;;;;10.65;4.53;;;;;;;-1.28;56.77;101187.69;5000628;28;20052;-67
2024/02/27 05:22:39;;;;;;;8.60;3.67;;;;;;;-1.29;56.64;101190.16;4999936;28;20058;-66
2024/02/27 05:25:06;;;;;;;10.85;4.03;;;;;;;-1.40;56.50;101169.06;4971447;28;20121;-66
2024/02/27 05:27:34;;;;;;;8.10;4.30;;;;;;;-1.44;56.54;101159.47;5001436;28;20138;-66
2024/02/27 05:29:59;;;;;;;7.10;3.85;;;;;;;-1.41;57.15;101162.19;4999303;28;20512;-66
2024/02/27 05:32:25;;;;;;;8.50;3.60;;;;;;;-1.33;56.51;101181.41;4989330;28;20058;-65
2024/02/27 05:34:51;;;;;;;9.23;4.10;;;;;;;-1.24;56.57;101193.88;5001069;28;20041;-66
2024/02/27 05:37:17;;;;;;;10.48;4.35;;;;;;;-1.23;56.99;101199.09;4988610;28;20042;-66
2024/02/27 05:39:43;;;;;;;10.43;3.75;;;;;;;-1.39;57.01;101155.50;4983622;28;20167;-66
2024/02/27 05:42:10;;;;;;;8.75;4.20;;;;;;;-1.11;57.24;101190.41;4981476;28;20052;-68
2024/02/27 05:44:36;;;;;;;8.73;4.13;;;;;;;-1.12;56.73;101199.75;4973086;28;20112;-68
2024/02/27 05:47:02;;;;;;;9.02;4.97;;;;;;;-1.09;57.43;101192.25;4983015;28;20040;-66
2024/02/27 05:49:28;;;;;;;7.80;4.20;;;;;;;-1.01;56.66;101191.84;4988647;28;20130;-66
2024/02/27 05:51:54;;;;;;;12.23;4.68;;;;;;;-1.06;56.97;101186.44;4982828;28;20485;-67
2024/02/27 05:54:20;;;;;;;7.63;3.78;;;;;;;-1.12;57.29;101174.19;4983522;28;20050;-66
2024/02/27 05:56:46;;;;;;;8.55;4.18;;;;;;;-0.90;56.98;101206.16;5002935;28;20041;-68
2024/02/27 05:59:12;;;;;;;9.68;4.00;;;;;;;-1.31;56.85;101133.88;5002018;28;20921;-70
2024/02/27 06:01:38;;;;;;;8.25;3.55;;;;;;;-0.98;56.91;101184.34;4983587;28;20053;-68
2024/02/27 06:04:04;;;;;;;9.25;3.95;;;;;;;-0.87;57.21;101192.66;5002544;28;20037;-69
2024/02/27 06:06:30;;;;;;;11.00;4.10;;;;;;;-0.83;56.92;101182.72;5000101;28;20045;-69
2024/02/27 06:08:58;;;;;;;7.45;4.10;;;;;;;-0.66;57.01;101199.06;4985463;28;20054;-68
2024/02/27 06:11:25;;;;;;;9.77;4.43;;;;;;;-0.62;56.66;101200.09;4973575;28;20095;-67
2024/02/27 06:13:51;;;;;;;9.60;4.10;;;;;;;-0.63;56.96;101196.69;4985113;28;20042;-69
2024/02/27 06:16:20;;;;;;;9.65;4.97;;;;;;;-0.58;57.01;101199.50;5001273;28;20048;-67
2024/02/27 06:18:47;;;;;;;7.30;4.00;;;;;;;-0.56;56.65;101207.28;5001213;28;20038;-67
2024/02/27 06:23:58;;;;;;;10.02;4.50;;;;;;;-0.56;56.84;101162.13;4983756;28;20514;-68
2024/02/27 06:26:26;;;;;;;12.18;4.10;;;;;;;-0.56;56.93;101172.34;5002244;28;20037;-69
2024/02/27 06:28:53;;;;;;;10.32;4.53;;;;;;;-0.50;57.24;101172.72;4969515;28;20133;-69
2024/02/27 06:31:19;;;;;;;7.45;4.00;;;;;;;-0.45;56.69;101165.28;5002360;28;20042;-70
2024/02/27 06:33:45;;;;;;;9.73;4.40;;;;;;;-0.22;56.57;101214.34;4983732;28;20046;-66
2024/02/27 06:36:12;;;;;;;10.10;4.18;;;;;;;-0.38;56.51;101156.28;4989298;28;20065;-67
2024/02/27 06:38:38;;;;;;;8.32;4.13;;;;;;;-0.39;56.63;101140.06;4984336;28;20048;-67
2024/02/27 06:41:04;;;;;;;9.90;4.20;;;;;;;-0.04;55.75;101161.63;4984328;28;20120;-68
2024/02/27 06:43:30;;;;;;;7.15;4.25;;;;;;;0.18;56.69;101178.19;4989286;28;20044;-66
2024/02/27 06:45:57;;;;;;;13.15;4.50;;;;;;;0.25;56.04;101177.75;4981766;28;20069;-69
2024/02/27 06:48:23;;;;;;;11.32;4.40;;;;;;;0.51;55.67;101203.91;4987785;28;20049;-68
2024/02/27 06:50:54;;;;;;;8.57;4.55;;;;;;;0.10;56.04;101136.81;5000138;28;20184;-69
2024/02/27 06:53:22;;;;;;;15.05;5.32;;;;;;;0.27;55.91;101168.47;4997805;28;20197;-68
2024/02/27 06:55:48;;;;;;;8.88;4.43;;;;;;;0.52;55.79;101186.84;4984103;28;20420;-67
2024/02/27 06:58:15;;;;;;;11.27;4.55;;;;;;;0.67;56.14;101192.78;4983692;28;20042;-66
2024/02/27 07:00:42;;;;;;;10.63;4.47;;;;;;;0.78;55.99;101200.19;5000468;28;20128;-66
2024/02/27 07:03:08;;;;;;;8.45;4.22;;;;;;;0.73;54.95;101182.88;4988429;28;20531;-67
2024/02/27 07:05:34;;;;;;;14.35;5.25;;;;;;;0.92;55.58;101218.84;5001719;28;20038;-65
2024/02/27 07:08:01;;;;;;;8.57;4.68;;;;;;;0.89;55.30;101219.56;4968575;28;20038;-68
2024/02/27 07:10:27;;;;;;;8.90;4.22;;;;;;;0.97;55.24;101228.53;4977970;28;20081;-66
2024/02/27 07:12:53;;;;;;;8.20;4.60;;;;;;;1.04;55.64;101224.63;4983184;28;20050;-67
2024/02/27 07:15:19;;;;;;;9.05;4.57;;;;;;;1.01;55.11;101221.88;4998530;28;20039;-67
2024/02/27 07:17:46;;;;;;;10.13;4.97;;;;;;;1.05;55.29;101217.03;4967890;28;20045;-68
2024/02/27 07:20:12;;;;;;;8.27;4.25;;;;;;;1.15;55.30;101222.63;4983807;28;20448;-67
2024/02/27 07:22:38;;;;;;;12.00;4.72;;;;;;;1.23;55.04;101208.53;4978310;28;20769;-68
2024/02/27 07:25:05;;;;;;;6.70;3.58;;;;;;;1.26;54.61;101193.28;4987120;28;20030;-67
2024/02/27 07:27:31;;;;;;;9.82;3.85;;;;;;;1.41;54.96;101218.84;4984218;28;20050;-67
2024/02/27 07:29:59;;;;;;;8.20;4.20;;;;;;;1.37;54.74;101216.94;4966078;28;20068;-67
2024/02/27 07:32:26;;;;;;;9.95;4.50;;;;;;;1.40;54.77;101196.56;4998273;28;20046;-67
2024/02/27 07:34:52;;;;;;;11.13;4.45;;;;;;;1.71;55.11;101223.75;4970743;28;20046;-67
2024/02/27 07:37:18;;;;;;;8.88;4.03;;;;;;;1.87;54.68;101233.09;4987726;28;20046;-66
2024/02/27 07:39:45;;;;;;;9.90;4.57;;;;;;;1.98;54.20;101220.78;4973442;28;20455;-69
2024/02/27 07:42:11;;;;;;;7.57;4.38;;;;;;;1.77;53.98;101172.72;4953842;28;20408;-67
2024/02/27 07:44:37;;;;;;;8.50;4.10;;;;;;;2.31;54.07;101220.66;4983688;28;20042;-68
2024/02/27 07:47:03;;;;;;;8.85;3.97;;;;;;;2.38;53.90;101209.00;4981070;28;20435;-66
2024/02/27 07:49:29;;;;;;;6.93;4.43;;;;;;;2.24;53.06;101190.34;4983290;28;20144;-68
2024/02/27 07:51:55;;;;;;;8.45;4.30;;;;;;;2.24;53.30;101174.94;4981416;28;20470;-68
2024/02/27 07:54:22;;;;;;;9.15;4.28;;;;;;;2.51;53.13;101218.16;4981423;28;20046;-68
2024/02/27 07:56:48;;;;;;;11.55;4.50;;;;;;;2.44;53.42;101190.41;5000039;28;20129;-67
2024/02/27 07:59:15;;;;;;;8.35;4.20;;;;;;;2.46;53.29;101145.97;5000459;28;20038;-66
2024/02/27 08:01:41;;;;;;;10.32;4.68;;;;;;;2.73;52.79;101173.75;4981832;28;20125;-67
2024/02/27 08:04:07;;;;;;;10.30;4.80;;;;;;;3.09;52.63;101175.31;4997615;28;20558;-66
2024/02/27 08:06:33;;;;;;;12.40;5.00;;;;;;;3.47;52.06;101201.78;4998904;28;20038;-67
2024/02/27 08:08:59;;;;;;;9.85;4.80;;;;;;;3.49;52.31;101165.84;4982603;28;20069;-68
2024/02/27 08:11:26;;;;;;;6.80;4.75;;;;;;;3.58;52.08;101149.09;4982765;28;20492;-67
2024/02/27 08:13:52;;;;;;;8.95;4.43;;;;;;;3.85;52.13;101178.47;4985700;28;20048;-68
2024/02/27 08:16:19;;;;;;;12.13;4.55;;;;;;;3.88;51.28;101173.44;5002664;28;20046;-67
2024/02/27 08:18:46;;;;;;;8.10;4.30;;;;;;;3.89;50.98;101180.34;4971861;28;20457;-68
2024/02/27 08:21:12;;;;;;;12.25;5.10;;;;;;;4.00;51.20;101202.25;5000542;28;20038;-67
2024/02/27 08:23:38;;;;;;;9.65;4.80;;;;;;;4.05;50.18;101210.19;4990475;28;20042;-67
2024/02/27 08:26:06;;;;;;;8.43;4.47;;;;;;;3.69;50.16;101182.09;5003263;28;20049;-68
2024/02/27 08:28:33;;;;;;;10.07;4.50;;;;;;;3.55;50.00;101172.13;4982585;28;20132;-67
2024/02/27 08:31:03;;;;;;;9.45;4.55;;;;;;;3.61;50.92;101164.66;4987425;28;20042;-69
2024/02/27 08:33:30;;;;;;;7.70;4.38;;;;;;;4.10;50.28;101170.00;4983829;28;20065;-70
2024/02/27 08:35:56;;;;;;;11.75;4.78;;;;;;;4.83;50.48;101191.69;4973739;28;20136;-69
2024/02/27 08:38:22;;;;;;;10.65;4.55;;;;;;;5.28;50.19;101202.75;4985113;28;20125;-71
2024/02/27 08:40:49;;;;;;;15.55;5.07;;;;;;;5.13;49.13;101182.44;4989790;28;20125;-69
2024/02/27 08:43:15;;;;;;;11.75;4.80;;;;;;;4.98;49.10;101201.69;5003989;28;20046;-71
2024/02/27 08:45:42;;;;;;;11.18;4.75;;;;;;;4.93;48.85;101198.06;4992642;28;20180;-66
2024/02/27 08:48:08;;;;;;;9.77;4.13;;;;;;;5.26;49.36;101194.06;4994792;28;20045;-66
2024/02/27 08:50:34;;;;;;;15.30;4.57;;;;;;;5.91;49.33;101216.91;4996810;28;20052;-65
2024/02/27 08:53:00;;;;;;;10.07;4.82;;;;;;;6.50;48.93;101207.56;4992593;28;20053;-65
2024/02/27 08:55:27;;;;;;;15.75;4.93;;;;;;;6.89;47.65;101194.94;4992142;28;20049;-65
2024/02/27 08:57:53;;;;;;;10.45;4.80;;;;;;;6.95;46.68;101217.53;4994674;28;20038;-66
2024/02/27 09:00:19;;;;;;;10.35;4.70;;;;;;;6.60;46.65;101202.72;5011038;28;20504;-67
2024/02/27 09:02:45;;;;;;;13.98;5.03;;;;;;;6.09;45.94;101200.28;4976271;28;20038;-68
2024/02/27 09:05:12;;;;;;;9.80;4.13;;;;;;;5.83;46.13;101195.13;4988179;28;20408;-68
2024/02/27 09:07:43;;;;;;;8.77;5.03;;;;;;;6.02;46.32;101225.03;4991491;28;20547;-67
2024/02/27 09:10:10;;;;;;;7.72;4.10;;;;;;;6.07;46.50;101227.81;4992529;28;20072;-66
2024/02/27 09:12:36;;;;;;;8.60;4.72;;;;;;;6.18;46.57;101229.88;4994294;28;20073;-67
2024/02/27 09:15:02;;;;;;;11.07;5.10;;;;;;;6.13;46.86;101195.28;4992206;28;20150;-68
2024/02/27 09:17:31;;;;;;;12.63;5.32;;;;;;;6.36;46.33;101227.81;5000821;28;20049;-68
2024/02/27 09:19:58;;;;;;;11.07;5.13;;;;;;;6.18;45.82;101213.50;4990833;28;20043;-66
2024/02/27 09:22:24;;;;;;;14.13;4.70;;;;;;;6.06;45.97;101207.94;4994847;28;20042;-68
2024/02/27 09:24:54;;;;;;;12.07;4.70;;;;;;;6.01;45.70;101223.28;4992140;28;20184;-67
2024/02/27 09:27:23;;;;;;;11.98;4.90;;;;;;;5.70;45.19;101238.63;4983017;28;20042;-66
2024/02/27 09:29:49;;;;;;;11.00;4.47;;;;;;;5.37;46.58;101205.66;4988997;28;20185;-68
2024/02/27 09:32:20;;;;;;;10.25;4.78;;;;;;;5.21;45.69;101208.50;4989689;28;20038;-66
2024/02/27 09:34:47;;;;;;;11.23;4.65;;;;;;;5.03;46.48;101196.69;4992754;28;20103;-65
2024/02/27 09:37:13;;;;;;;9.38;4.78;;;;;;;5.15;45.76;101227.22;4975645;28;20042;-67
2024/02/27 09:39:39;;;;;;;9.18;4.78;;;;;;;4.88;45.76;101206.47;5006457;28;20038;-68
2024/02/27 09:42:10;;;;;;;6.47;4.40;;;;;;;4.95;46.47;101213.63;5000410;28;20070;-69
2024/02/27 09:44:39;;;;;;;10.55;5.13;;;;;;;4.97;46.11;101225.75;4991037;28;20046;-70
2024/02/27 09:47:07;;;;;;;13.27;5.63;;;;;;;4.80;46.79;101209.63;4987960;28;20505;-66
2024/02/27 09:49:38;;;;;;;11.02;5.18;;;;;;;4.76;46.09;101212.03;5002403;28;20053;-64
2024/02/27 09:52:06;;;;;;;9.03;4.83;;;;;;;4.71;46.38;101226.47;4990788;28;20052;-66
2024/02/27 09:54:32;;;;;;;13.02;5.68;;;;;;;4.43;46.88;101185.03;5008833;28;20185;-72
2024/02/27 09:57:00;;;;;;;9.77;5.13;;;;;;;4.60;46.76;101197.69;4995069;28;20056;-71
2024/02/27 09:59:27;;;;;;;9.18;5.35;;;;;;;4.55;46.99;101176.91;4992373;28;20038;-64
2024/02/27 10:02:19;;;;;;;20.77;5.25;;;;;;;4.58;47.17;101186.44;4991986;28;20492;-64
2024/02/27 10:04:45;;;;;;;9.90;5.40;;;;;;;4.48;47.18;101191.25;4991441;28;20050;-65
2024/02/27 10:07:14;;;;;;;9.15;4.57;;;;;;;4.51;47.11;101214.59;4992887;28;20411;-62
2024/02/27 10:09:45;;;;;;;10.80;5.20;;;;;;;4.46;46.77;101205.78;5000206;28;20073;-63
2024/02/27 10:12:12;;;;;;;8.52;4.20;;;;;;;4.49;47.77;101194.69;4985444;28;20129;-63
2024/02/27 10:14:39;;;;;;;9.55;4.82;;;;;;;4.50;47.00;101189.63;4983939;28;20076;-72
2024/02/27 10:17:06;;;;;;;9.82;4.43;;;;;;;4.52;47.03;101175.06;4971972;28;20040;-65
2024/02/27 10:19:34;;;;;;;14.65;5.22;;;;;;;4.76;47.82;101199.16;4980968;28;20524;-64
2024/02/27 10:22:01;;;;;;;12.65;5.65;;;;;;;4.71;47.61;101182.63;4977050;28;20045;-66
2024/02/27 10:24:28;;;;;;;12.07;5.10;;;;;;;4.60;47.37;101179.63;4979099;28;20074;-64
2024/02/27 10:26:55;;;;;;;9.02;4.20;;;;;;;4.61;47.24;101194.28;4983523;28;20039;-70
2024/02/27 10:29:27;;;;;;;11.75;5.05;;;;;;;4.51;47.42;101183.66;4992910;28;20066;-65
2024/02/27 10:31:53;;;;;;;9.85;5.07;;;;;;;4.53;47.83;101194.88;4978111;28;20038;-66
2024/02/27 10:34:20;;;;;;;8.20;4.53;;;;;;;4.45;48.08;101180.84;4992239;28;20089;-66
2024/02/27 10:37:09;;;;;;;11.90;5.28;;;;;;;4.58;47.58;101189.00;4983334;28;20042;-67
2024/02/27 10:39:35;;;;;;;10.95;5.18;;;;;;;4.57;47.69;101171.78;4977249;28;20046;-66
2024/02/27 10:42:02;;;;;;;9.43;5.15;;;;;;;4.46;47.65;101169.69;4977040;28;20472;-66
2024/02/27 10:44:29;;;;;;;11.38;5.65;;;;;;;4.55;47.86;101183.75;4975938;28;20790;-65
2024/02/27 10:46:56;;;;;;;15.65;5.15;;;;;;;4.48;47.63;101174.91;4983530;28;20349;-65
2024/02/27 10:49:22;;;;;;;10.88;5.35;;;;;;;4.56;47.64;101190.66;4981476;28;20046;-65
2024/02/27 10:51:49;;;;;;;12.88;5.85;;;;;;;4.70;47.84;101194.66;4996406;28;20160;-66
2024/02/27 10:54:18;;;;;;;11.15;5.10;;;;;;;4.72;48.10;101180.13;4979046;28;20050;-66
2024/02/27 10:56:49;;;;;;;11.63;5.55;;;;;;;4.85;47.78;101184.03;4979984;28;20042;-65
2024/02/27 10:59:16;;;;;;;11.68;5.30;;;;;;;4.87;48.12;101179.78;4977389;28;20081;-66
2024/02/27 11:01:45;;;;;;;9.07;5.00;;;;;;;4.92;47.65;101156.75;4978977;28;20095;-66
2024/02/27 11:04:23;;;;;;;9.73;4.85;;;;;;;5.15;48.06;101185.94;4991804;28;20042;-64
2024/02/27 11:07:05;;;;;;;10.65;5.10;;;;;;;5.00;47.45;101167.34;4994487;28;20527;-65
2024/02/27 11:09:35;;;;;;;12.57;5.18;;;;;;;4.96;47.54;101156.91;4993838;28;20094;-67
2024/02/27 11:12:08;;;;;;;10.73;5.32;;;;;;;5.21;47.46;101181.00;4983140;28;20038;-64
2024/02/27 11:14:40;;;;;;;10.73;5.18;;;;;;;5.32;46.86;101168.47;4983056;28;20035;-73
2024/02/27 11:17:36;;;;;;;9.05;4.80;;;;;;;5.49;47.12;101199.16;4980259;28;20058;-73
2024/02/27 11:20:03;;;;;;;8.00;4.75;;;;;;;5.55;47.35;101155.47;4982415;28;20089;-73
2024/02/27 11:22:30;;;;;;;12.15;5.38;;;;;;;5.60;46.97;101156.50;4982403;28;20070;-69
2024/02/27 11:24:56;;;;;;;11.20;5.20;;;;;;;5.46;46.26;101142.22;4964264;28;20047;-67
2024/02/27 11:27:24;;;;;;;10.88;5.22;;;;;;;5.67;46.31;101168.78;4984604;28;20500;-67
2024/02/27 11:29:53;;;;;;;7.88;4.18;;;;;;;5.60;46.22;101174.56;4979879;28;20049;-68